Eurocargo Venezia — IBKS — position and weather

sailwx.info

Track history (hours):
 
Tides and Currents Weather Stations Pressure Air Temp Water Temp Dewpoint Dewpoint Depression Visibility Wind Speed Wind Dir Waves Ship Positions

Eurocargo Venezia

Last reported at 2014-Oct-30 20:17 UTC. Time now 2014-Oct-31 07:49 UTC.
Position N 42°40' E 010°41'.

Length 200 m; draft 7.3 m.

Type: Ship (hazmat cat A). MMSI: 247297200.

Date/timePositionNaut miles runAvg speedWind from/ knotsBaromVisibWave heightAir tempDewpointWater temp
2014-Oct-30 20:17N 42°40' E 010°41'1318.5
2014-Oct-30 19:33N 42°51' E 010°31'1918.6
2014-Oct-30 18:32N 43°09' E 010°21'1818.5
2014-Oct-30 17:33N 43°26' E 010°13'10 9.9
2014-Oct-30 16:33N 43°35' E 010°18'0 0.0
2014-Oct-30 15:33N 43°35' E 010°18'0 0.0
2014-Oct-30 14:30N 43°35' E 010°18'0 0.0
2014-Oct-30 13:33N 43°35' E 010°18'0 0.0
2014-Oct-30 12:33N 43°35' E 010°18'0 0.0
2014-Oct-30 11:33N 43°35' E 010°18'0 0.0
2014-Oct-30 10:30N 43°35' E 010°18'0 0.0
2014-Oct-30 09:30N 43°35' E 010°18'0 0.0
2014-Oct-30 08:33N 43°35' E 010°18'0 0.0
2014-Oct-30 07:33N 43°35' E 010°18'0 0.4
2014-Oct-30 06:34N 43°34' E 010°18'8 7.5
2014-Oct-30 05:33N 43°28' E 010°12'10 9.8
2014-Oct-30 04:33N 43°31' E 009°59'1919.1
2014-Oct-30 03:33N 43°45' E 009°40'1919.0
2014-Oct-30 02:33N 43°59' E 009°24'2019.7
2014-Oct-30 01:34N 44°14' E 009°05'1312.3
2014-Oct-30 00:28N 44°24' E 008°53'0 0.0
2014-Oct-29 23:31N 44°24' E 008°53'0 0.0
2014-Oct-29 22:31N 44°24' E 008°53'0 0.0
2014-Oct-29 21:31N 44°24' E 008°53'0 0.0
2014-Oct-29 20:28N 44°24' E 008°53'0 0.0
2014-Oct-29 19:31N 44°24' E 008°53'0 0.0
2014-Oct-29 18:31N 44°24' E 008°53'0 0.2
2014-Oct-29 17:33N 44°24' E 008°53'8 7.9
2014-Oct-29 16:33N 44°18' E 009°01'1919.0
2014-Oct-29 15:33N 44°04' E 009°18'1919.4
2014-Oct-29 14:33N 43°49' E 009°36'2019.5
2014-Oct-29 13:34N 43°35' E 009°53'1919.2
2014-Oct-29 12:34N 43°19' E 010°09'1919.2
2014-Oct-29 11:33N 43°02' E 010°22'2219.1
2014-Oct-29 10:22N 42°43' E 010°38'34519.2
2014-Oct-28 16:24N 38°25' E 015°39'1416.5
2014-Oct-28 15:33N 38°11' E 015°37'100 6.6
2014-Oct-28 00:20N 36°34' E 015°06'421 9.6
2014-Oct-26 04:33N 42°41' E 010°41'2018.8
2014-Oct-26 03:31N 42°57' E 010°26'1818.3
2014-Oct-26 02:33N 43°13' E 010°14'1818.3
2014-Oct-26 01:33N 43°28' E 010°02'1818.0
2014-Oct-26 00:33N 43°41' E 009°45'1817.6
2014-Oct-25 23:34N 43°55' E 009°28'1818.0
2014-Oct-25 22:33N 44°08' E 009°12'1817.9
2014-Oct-25 21:33N 44°23' E 008°57'3 3.2
2014-Oct-25 20:33N 44°24' E 008°53'0 0.0
2014-Oct-25 19:33N 44°24' E 008°53'0 0.0
2014-Oct-25 18:33N 44°24' E 008°53'0 0.0
2014-Oct-25 17:33N 44°24' E 008°53'0 0.0
2014-Oct-25 16:33N 44°24' E 008°53'0 0.0
2014-Oct-25 15:33N 44°24' E 008°53'0 0.0
2014-Oct-25 14:33N 44°24' E 008°53'0 0.0
2014-Oct-25 13:33N 44°24' E 008°53'0 0.0
2014-Oct-25 12:33N 44°24' E 008°53'0 0.0
2014-Oct-25 11:33N 44°24' E 008°53'0 0.0
2014-Oct-25 10:33N 44°24' E 008°53'0 0.1
2014-Oct-25 09:33N 44°24' E 008°53'7 7.3
2014-Oct-25 08:33N 44°19' E 009°00'1817.9
2014-Oct-25 07:33N 44°06' E 009°17'1818.2
2014-Oct-25 06:33N 43°52' E 009°33'1918.6
2014-Oct-25 05:33N 43°38' E 009°50'1818.4
2014-Oct-25 04:33N 43°23' E 010°06'1918.6
2014-Oct-25 03:33N 43°07' E 010°19'37418.7
2014-Oct-24 07:33N 38°23' E 015°40'1615.9
2014-Oct-24 06:33N 38°07' E 015°35'2 0.1
2014-Oct-22 10:25N 38°09' E 015°35'35317.8
2014-Oct-21 14:32N 42°42' E 010°40'1917.9
2014-Oct-21 13:28N 42°58' E 010°27'1718.7
2014-Oct-21 12:33N 43°14' E 010°19'1717.2
2014-Oct-21 11:33N 43°31' E 010°13'5 5.0
2014-Oct-21 10:32N 43°35' E 010°18'0 0.0
2014-Oct-21 09:29N 43°35' E 010°18'0 0.0
2014-Oct-21 08:32N 43°35' E 010°18'0 0.0
2014-Oct-21 07:32N 43°35' E 010°18'0 0.0
2014-Oct-21 06:32N 43°35' E 010°18'0 0.0
2014-Oct-21 05:32N 43°35' E 010°18'0 0.0
2014-Oct-21 04:32N 43°35' E 010°18'4 3.6
2014-Oct-21 03:33N 43°32' E 010°16'1414.1
2014-Oct-21 02:34N 43°32' E 009°57'1716.8
2014-Oct-21 01:34N 43°44' E 009°41'1716.8
2014-Oct-21 00:34N 43°57' E 009°25'1716.8
2014-Oct-20 23:34N 44°10' E 009°10'1616.4
2014-Oct-20 22:34N 44°23' E 008°57'3 2.8
2014-Oct-20 21:32N 44°24' E 008°53'0 0.0
2014-Oct-20 20:29N 44°24' E 008°53'  
Track history (hours):
 
Tides and Currents Weather Stations Pressure Air Temp Water Temp Dewpoint Dewpoint Depression Visibility Wind Speed Wind Dir Waves Ship Positions

Eurocargo Venezia

Last reported at 2014-Oct-30 20:17 UTC. Time now 2014-Oct-31 07:49 UTC.
Position N 42°40' E 010°41'.

Length 200 m; draft 7.3 m.

Type: Ship (hazmat cat A). MMSI: 247297200.

Date/timePositionNaut miles runAvg speedWind from/ knotsBaromVisibWave heightAir tempDewpointWater temp
2014-Oct-30 20:17N 42°40' E 010°41'1318.5
2014-Oct-30 19:33N 42°51' E 010°31'1918.6
2014-Oct-30 18:32N 43°09' E 010°21'1818.5
2014-Oct-30 17:33N 43°26' E 010°13'10 9.9
2014-Oct-30 16:33N 43°35' E 010°18'0 0.0
2014-Oct-30 15:33N 43°35' E 010°18'0 0.0
2014-Oct-30 14:30N 43°35' E 010°18'0 0.0
2014-Oct-30 13:33N 43°35' E 010°18'0 0.0
2014-Oct-30 12:33N 43°35' E 010°18'0 0.0
2014-Oct-30 11:33N 43°35' E 010°18'0 0.0
2014-Oct-30 10:30N 43°35' E 010°18'0 0.0
2014-Oct-30 09:30N 43°35' E 010°18'0 0.0
2014-Oct-30 08:33N 43°35' E 010°18'0 0.0
2014-Oct-30 07:33N 43°35' E 010°18'0 0.4
2014-Oct-30 06:34N 43°34' E 010°18'8 7.5
2014-Oct-30 05:33N 43°28' E 010°12'10 9.8
2014-Oct-30 04:33N 43°31' E 009°59'1919.1
2014-Oct-30 03:33N 43°45' E 009°40'1919.0
2014-Oct-30 02:33N 43°59' E 009°24'2019.7
2014-Oct-30 01:34N 44°14' E 009°05'1312.3
2014-Oct-30 00:28N 44°24' E 008°53'0 0.0
2014-Oct-29 23:31N 44°24' E 008°53'0 0.0
2014-Oct-29 22:31N 44°24' E 008°53'0 0.0
2014-Oct-29 21:31N 44°24' E 008°53'0 0.0
2014-Oct-29 20:28N 44°24' E 008°53'0 0.0
2014-Oct-29 19:31N 44°24' E 008°53'0 0.0
2014-Oct-29 18:31N 44°24' E 008°53'0 0.2
2014-Oct-29 17:33N 44°24' E 008°53'8 7.9
2014-Oct-29 16:33N 44°18' E 009°01'1919.0
2014-Oct-29 15:33N 44°04' E 009°18'1919.4
2014-Oct-29 14:33N 43°49' E 009°36'2019.5
2014-Oct-29 13:34N 43°35' E 009°53'1919.2
2014-Oct-29 12:34N 43°19' E 010°09'1919.2
2014-Oct-29 11:33N 43°02' E 010°22'2219.1
2014-Oct-29 10:22N 42°43' E 010°38'34519.2
2014-Oct-28 16:24N 38°25' E 015°39'1416.5
2014-Oct-28 15:33N 38°11' E 015°37'100 6.6
2014-Oct-28 00:20N 36°34' E 015°06'421 9.6
2014-Oct-26 04:33N 42°41' E 010°41'2018.8
2014-Oct-26 03:31N 42°57' E 010°26'1818.3
2014-Oct-26 02:33N 43°13' E 010°14'1818.3
2014-Oct-26 01:33N 43°28' E 010°02'1818.0
2014-Oct-26 00:33N 43°41' E 009°45'1817.6
2014-Oct-25 23:34N 43°55' E 009°28'1818.0
2014-Oct-25 22:33N 44°08' E 009°12'1817.9
2014-Oct-25 21:33N 44°23' E 008°57'3 3.2
2014-Oct-25 20:33N 44°24' E 008°53'0 0.0
2014-Oct-25 19:33N 44°24' E 008°53'0 0.0
2014-Oct-25 18:33N 44°24' E 008°53'0 0.0
2014-Oct-25 17:33N 44°24' E 008°53'0 0.0
2014-Oct-25 16:33N 44°24' E 008°53'0 0.0
2014-Oct-25 15:33N 44°24' E 008°53'0 0.0
2014-Oct-25 14:33N 44°24' E 008°53'0 0.0
2014-Oct-25 13:33N 44°24' E 008°53'0 0.0
2014-Oct-25 12:33N 44°24' E 008°53'0 0.0
2014-Oct-25 11:33N 44°24' E 008°53'0 0.0
2014-Oct-25 10:33N 44°24' E 008°53'0 0.1
2014-Oct-25 09:33N 44°24' E 008°53'7 7.3
2014-Oct-25 08:33N 44°19' E 009°00'1817.9
2014-Oct-25 07:33N 44°06' E 009°17'1818.2
2014-Oct-25 06:33N 43°52' E 009°33'1918.6
2014-Oct-25 05:33N 43°38' E 009°50'1818.4
2014-Oct-25 04:33N 43°23' E 010°06'1918.6
2014-Oct-25 03:33N 43°07' E 010°19'37418.7
2014-Oct-24 07:33N 38°23' E 015°40'1615.9
2014-Oct-24 06:33N 38°07' E 015°35'2 0.1
2014-Oct-22 10:25N 38°09' E 015°35'35317.8
2014-Oct-21 14:32N 42°42' E 010°40'1917.9
2014-Oct-21 13:28N 42°58' E 010°27'1718.7
2014-Oct-21 12:33N 43°14' E 010°19'1717.2
2014-Oct-21 11:33N 43°31' E 010°13'5 5.0
2014-Oct-21 10:32N 43°35' E 010°18'0 0.0
2014-Oct-21 09:29N 43°35' E 010°18'0 0.0
2014-Oct-21 08:32N 43°35' E 010°18'0 0.0
2014-Oct-21 07:32N 43°35' E 010°18'0 0.0
2014-Oct-21 06:32N 43°35' E 010°18'0 0.0
2014-Oct-21 05:32N 43°35' E 010°18'0 0.0
2014-Oct-21 04:32N 43°35' E 010°18'4 3.6
2014-Oct-21 03:33N 43°32' E 010°16'1414.1
2014-Oct-21 02:34N 43°32' E 009°57'1716.8
2014-Oct-21 01:34N 43°44' E 009°41'1716.8
2014-Oct-21 00:34N 43°57' E 009°25'1716.8
2014-Oct-20 23:34N 44°10' E 009°10'1616.4
2014-Oct-20 22:34N 44°23' E 008°57'3 2.8
2014-Oct-20 21:32N 44°24' E 008°53'0 0.0
2014-Oct-20 20:29N 44°24' E 008°53'  

Dump ship's entire track history